»·PEaware :: N822GT KOXR-KLGB

N822GT :: KOXR-KLGB

FLIGHT INFORMATION

Flight Status: Arrived
Operator: Privately registered:
United States
More flights under this callsign
Pilot: James B. (31231)
Aircraft: PIPER PA-28R-201 ARROW
(P28R)
More flights by this aircraft type
Origin: KOXR Oxnard
United States
Destination: KLGB Long Beach
United States
More flights between these airports :: More routes between these airports
Route: VTU044 GINNA V326 VNY V186 ADAMM V394 SLI
File this flight plan on PilotEdge
Remarks:
Altitude:
(Current/Filed)
5,000ft
Speed:
(Current/Filed)
130kts
Departed: 27-Jan-21 07:09 PM
Arrived: 27-Jan-21 07:59 PM
Distance/Time
Traveled:
57nm/0:50
Distance/Time
To Go:
Arrived

Flight Plot

Page will automatically refresh every two minutes.


Map Options




Map Legend


Flown Route
Filed Route
Departure Airport
Arrival Airport
Navaid (VOR, NDB)
Fix

Horizontal Profiles

Position Reports

Time Latitude Longitude Heading Altitude Ground
Speed
27-Jan-21 18:43 34.198726 -119.202074 359 38ft 0kts
27-Jan-21 18:44 34.198726 -119.202074 359 38ft 0kts
27-Jan-21 18:45 34.198726 -119.202074 359 38ft 0kts
27-Jan-21 18:46 34.198726 -119.202074 359 38ft 0kts
27-Jan-21 18:47 34.198726 -119.202074 359 38ft 0kts
27-Jan-21 18:48 34.198726 -119.202074 359 38ft 0kts
27-Jan-21 18:49 34.198726 -119.202074 359 38ft 0kts
27-Jan-21 18:50 34.198726 -119.202074 359 38ft 0kts
27-Jan-21 18:51 34.198726 -119.202074 359 38ft 0kts
27-Jan-21 18:52 34.199198 -119.202051 4 38ft 5kts
27-Jan-21 18:53 34.199656 -119.199824 89 41ft 8kts
27-Jan-21 18:54 34.199628 -119.198246 90 41ft 0kts
27-Jan-21 18:55 34.199628 -119.198246 90 41ft 0kts
27-Jan-21 18:56 34.199628 -119.198246 90 41ft 0kts
27-Jan-21 18:57 34.199628 -119.198246 90 41ft 0kts
27-Jan-21 18:58 34.199628 -119.198246 90 41ft 0kts
27-Jan-21 18:59 34.199628 -119.198246 90 41ft 0kts
27-Jan-21 18:59 34.199628 -119.198246 90 41ft 0kts
27-Jan-21 19:01 34.199628 -119.198246 90 41ft 0kts
27-Jan-21 19:01 34.199628 -119.198246 90 41ft 0kts
27-Jan-21 19:03 34.199464 -119.198134 220 41ft 4kts
27-Jan-21 19:03 34.199621 -119.200174 269 41ft 10kts
27-Jan-21 19:04 34.199654 -119.204802 269 38ft 15kts
27-Jan-21 19:05 34.199707 -119.209723 270 35ft 16kts
27-Jan-21 19:06 34.199746 -119.216069 270 29ft 18kts
27-Jan-21 19:07 34.200074 -119.216973 3 28ft 0kts
27-Jan-21 19:08 34.200883 -119.210638 91 72ft 78kts
27-Jan-21 19:09 34.202133 -119.181802 77 871ft 90kts
27-Jan-21 19:10 34.203117 -119.152282 88 1905ft 91kts
27-Jan-21 19:11 34.202133 -119.121579 90 2915ft 93kts
27-Jan-21 19:12 34.202528 -119.090794 83 3764ft 96kts
27-Jan-21 19:13 34.200955 -119.054682 85 4070ft 128kts
27-Jan-21 19:14 34.201809 -119.009312 84 4066ft 139kts
27-Jan-21 19:15 34.203831 -118.965175 76 4371ft 125kts
27-Jan-21 19:16 34.209510 -118.925097 75 4820ft 120kts
27-Jan-21 19:17 34.215217 -118.885485 75 5089ft 131kts
27-Jan-21 19:18 34.221572 -118.841059 75 5087ft 138kts
27-Jan-21 19:19 34.222862 -118.795013 85 5087ft 140kts
27-Jan-21 19:20 34.223029 -118.749044 85 5087ft 140kts
27-Jan-21 19:21 34.223129 -118.703710 85 5087ft 140kts
27-Jan-21 19:22 34.223202 -118.657655 85 5087ft 140kts
27-Jan-21 19:23 34.223256 -118.611394 85 5087ft 140kts
27-Jan-21 19:24 34.223297 -118.563804 85 5087ft 140kts
27-Jan-21 19:25 34.223322 -118.517127 85 5087ft 140kts
27-Jan-21 19:26 34.217173 -118.471990 104 5087ft 144kts
27-Jan-21 19:27 34.203880 -118.427259 105 5087ft 144kts
27-Jan-21 19:28 34.190443 -118.382920 105 5087ft 145kts
27-Jan-21 19:29 34.177184 -118.339270 106 5087ft 142kts
27-Jan-21 19:30 34.163823 -118.295348 106 5087ft 142kts
27-Jan-21 19:31 34.150408 -118.251305 106 5087ft 142kts
27-Jan-21 19:32 34.137240 -118.208132 106 5087ft 142kts
27-Jan-21 19:33 34.123870 -118.164359 106 5087ft 142kts
27-Jan-21 19:34 34.110491 -118.120623 106 5087ft 142kts
27-Jan-21 19:35 34.097261 -118.077438 106 5087ft 142kts
27-Jan-21 19:36 34.083644 -118.033062 106 5087ft 149kts
27-Jan-21 19:37 34.069377 -117.986673 106 5087ft 150kts
27-Jan-21 19:38 34.053120 -117.942223 112 5088ft 151kts
27-Jan-21 19:39 34.038453 -117.896815 110 5089ft 151kts
27-Jan-21 19:40 34.025709 -117.850727 100 5096ft 149kts
27-Jan-21 19:41 34.002059 -117.814640 172 5046ft 161kts
27-Jan-21 19:42 33.964041 -117.831641 191 5244ft 151kts
27-Jan-21 19:43 33.924437 -117.849254 220 5084ft 156kts
27-Jan-21 19:44 33.898528 -117.888040 221 5025ft 154kts
27-Jan-21 19:45 33.866663 -117.922054 236 4889ft 155kts
27-Jan-21 19:46 33.838715 -117.960231 239 4720ft 152kts
27-Jan-21 19:47 33.812975 -118.000173 229 3703ft 150kts
27-Jan-21 19:48 33.787323 -118.034752 240 2175ft 142kts
27-Jan-21 19:49 33.763638 -118.064777 223 1514ft 121kts
27-Jan-21 19:50 33.745031 -118.066711 162 1633ft 93kts
27-Jan-21 19:51 33.718291 -118.059574 170 1707ft 83kts
27-Jan-21 19:52 33.725308 -118.050175 305 1643ft 83kts
27-Jan-21 19:53 33.742997 -118.069065 308 1599ft 87kts
27-Jan-21 19:54 33.762579 -118.083405 331 1543ft 89kts
27-Jan-21 19:55 33.779047 -118.105537 330 855ft 85kts
27-Jan-21 19:56 33.796395 -118.125907 317 453ft 94kts
27-Jan-21 19:57 33.812671 -118.145191 314 36ft 71kts
27-Jan-21 19:58 33.818557 -118.153643 270 42ft 0kts
27-Jan-21 19:59 33.818557 -118.153643 270 42ft 0kts
27-Jan-21 20:00 33.818573 -118.154642 270 42ft 12kts
27-Jan-21 20:01 33.817350 -118.157870 265 47ft 0kts

Navigation Log

Ident Type
Flight plan parsing failed, navigation log unavailable